Flight Track Log - Related Links

Times and Time Zones

All times are in EDT time to prevent confusion due to time zone crossing. See the ASQ4366 flight status page for this flight to view local times or setup timezone preferences in your user account.


Time Position Orientation Groundspeed Altitude Reporting Facility
EDT Latitude Longitude Course Direction KTS MPH feet Rate Location/Type
Wed 09:28:33 AM 29.9614 -95.3411 90° East 158 182 900  Level Houston Center
Wed 09:29:32 AM 29.9464 -95.2839 107° East 208 239 3,000 2,331 Climbing Houston Center
Wed 09:30:34 AM 29.9461 -95.2017 90° East 258 297 5,600 2,710 Climbing Houston Center
Wed 09:31:36 AM 29.9492 -95.1125 88° East 275 316 8,600 2,323 Climbing Houston Center
Wed 09:32:00 AM 29.9834 -94.8027 90° East  Level FlightAware Approximate
Wed 09:32:38 AM 29.9553 -95.0194 86° East 289 333 10,400  Level Houston Center
Wed 09:33:00 AM 29.9833 -94.6701 90° East  Level FlightAware Approximate
Wed 09:33:40 AM 29.9608 -94.9072 87° East 345 397 11,500  Level Houston Center
Wed 09:34:41 AM 29.9686 -94.7878 86° East 369 425 13,100 1,561 Climbing Houston Center
Wed 09:35:43 AM 29.9764 -94.6642 86° East 380 437 14,700 1,935 Climbing Houston Center
Wed 09:36:45 AM 29.9853 -94.5142 86° East 388 447 17,100 1,839 Climbing Houston Center
Wed 09:37:47 AM 29.9947 -94.4058 84° East 388 447 18,500 1,161 Climbing Houston Center
Wed 09:38:49 AM 30.0100 -94.2800 82° East 396 456 19,500 726 Climbing Houston Center
Wed 09:39:51 AM 30.0286 -94.1169 82° East 423 487 20,000 439 Climbing Houston Center
Wed 09:40:52 AM 30.0453 -93.9731 82° East 448 516 20,400 927 Climbing Houston Center
Wed 09:41:54 AM 30.0617 -93.8317 82° East 448 516 21,900 1,452 Climbing Houston Center
Wed 09:42:56 AM 30.0764 -93.6933 83° East 442 509 23,400 1,500 Climbing Houston Center
Wed 09:43:58 AM 30.0919 -93.5553 83° East 440 506 25,000 1,645 Climbing Houston Center
Wed 09:45:00 AM 30.1089 -93.3936 83° East 432 497 26,800 1,210 Climbing Houston Center
Wed 09:46:02 AM 30.1239 -93.2575 83° East 433 498 27,500 1,073 Climbing Houston Center
Wed 09:47:03 AM 30.1383 -93.1211 83° East 433 498 29,000 1,415 Climbing Houston Center
Wed 09:48:05 AM 30.1639 -92.9894 77° East 426 490 30,400 1,403 Climbing Houston Center
Wed 09:49:07 AM 30.2036 -92.8631 70° East 428 493 31,900 1,248 Climbing Houston Center
Wed 09:50:10 AM 30.2786 -92.7258 58° Northeast 423 487 33,000 532 Climbing Houston Center
Wed 09:51:11 AM 30.3475 -92.6042 57° Northeast 444 511 33,000  Level Houston Center
Wed 09:52:13 AM 30.4178 -92.4783 57° Northeast 463 533 33,000  Level Houston Center
Wed 09:53:15 AM 30.4950 -92.3419 57° Northeast 466 536 33,000  Level Houston Center
Wed 09:54:17 AM 30.5661 -92.2144 57° Northeast 470 541 33,000  Level Houston Center
Wed 09:55:19 AM 30.6342 -92.0897 58° Northeast 462 532 33,000  Level Houston Center
Wed 09:56:21 AM 30.7017 -91.9681 57° Northeast 453 521 33,000  Level Houston Center
Wed 09:57:22 AM 30.7678 -91.8475 57° Northeast 448 516 33,000  Level Houston Center
Wed 09:58:24 AM 30.8483 -91.7014 57° Northeast 449 517 33,000  Level Houston Center
Wed 09:59:26 AM 30.9164 -91.5775 57° Northeast 454 522 33,000  Level Houston Center
Wed 10:00:28 AM 30.9847 -91.4531 57° Northeast 458 527 33,000  Level Houston Center
Wed 10:01:30 AM 31.0578 -91.3189 58° Northeast 456 525 33,000  Level Houston Center
Wed 10:02:32 AM 31.1261 -91.1925 58° Northeast 459 528 33,000  Level Houston Center
Wed 10:03:34 AM 31.1933 -91.0686 58° Northeast 453 521 33,000  Level Houston Center
Wed 10:04:36 AM 31.2597 -90.9442 58° Northeast 451 519 33,000  Level Houston Center
Wed 10:05:38 AM 31.3272 -90.8192 58° Northeast 452 520 33,000  Level Houston Center
Wed 10:06:40 AM 31.3953 -90.6933 58° Northeast 455 524 33,000  Level Houston Center
Wed 10:07:42 AM 31.4750 -90.5425 58° Northeast 453 521 33,000  Level Houston Center
Wed 10:08:44 AM 31.5411 -90.4169 58° Northeast 453 521 33,000  Level Houston Center
Wed 10:09:46 AM 31.6089 -90.2906 58° Northeast 456 525 33,000  Level Houston Center
Wed 10:10:47 AM 31.6753 -90.1644 58° Northeast 454 522 33,000  Level Houston Center
Wed 10:11:49 AM 31.7422 -90.0383 58° Northeast 454 522 33,000  Level Houston Center
Wed 10:12:44 AM 31.8108 -89.9050 59° Northeast 453 521 33,000  Level Memphis Center
Wed 10:13:44 AM 31.8772 -89.7800 58° Northeast 453 521 33,000  Level Memphis Center
Wed 10:14:44 AM 31.9456 -89.6522 58° Northeast 453 521 33,000 -250 Level Memphis Center
Wed 10:15:44 AM 32.0094 -89.5244 59° Northeast 453 521 32,500 -950 Descending Memphis Center
Wed 10:16:44 AM 32.0753 -89.3989 58° Northeast 453 521 31,100 -1,400 Descending Memphis Center
Wed 10:17:44 AM 32.1389 -89.2778 58° Northeast 448 516 29,700 -1,400 Descending Memphis Center
Wed 10:18:44 AM 32.2067 -89.1469 58° Northeast 448 516 28,300 -1,400 Descending Memphis Center
Wed 10:19:44 AM 32.2742 -89.0158 59° Northeast 454 522 26,900 -1,400 Descending Memphis Center
Wed 10:20:44 AM 32.3417 -88.8819 59° Northeast 459 528 25,500 -1,450 Descending Memphis Center
Wed 10:21:44 AM 32.4131 -88.7553 56° Northeast 459 528 24,000 -1,250 Descending Memphis Center
Wed 10:22:44 AM 32.4931 -88.6431 50° Northeast 454 522 23,000 -600 Descending Memphis Center
Wed 10:23:44 AM 32.5708 -88.5281 51° Northeast 449 517 22,800 -800 Descending Memphis Center
Wed 10:24:44 AM 32.6422 -88.4281 50° Northeast 449 517 21,400 -1,400 Descending Memphis Center
Wed 10:25:44 AM 32.7136 -88.3178 52° Northeast 441 507 20,000 -796 Descending Memphis Center
Wed 10:27:45 AM 32.8614 -88.0919 52° Northeast 437 503 19,000 -331 Descending Atlanta Center
Wed 10:28:45 AM 32.9464 -87.9769 49° Northeast 428 493 19,000  Level Atlanta Center
Wed 10:29:45 AM 33.0144 -87.8786 50° Northeast 428 493 19,000  Level Atlanta Center
Wed 10:30:46 AM 33.0867 -87.7678 52° Northeast 428 493 19,000 -450 Level Atlanta Center
Wed 10:31:45 AM 33.1608 -87.6592 51° Northeast 428 493 18,100 -1,186 Descending Atlanta Center
Wed 10:32:12 AM 33.2000 -87.6061 49° Northeast 419 482 17,300 -2,000 Descending Atlanta Center
Wed 10:32:45 AM 33.2347 -87.5556 51° Northeast 421 484 16,100 -2,727 Descending Atlanta Center
Wed 10:33:07 AM 33.2633 -87.5094 53° Northeast 405 466 14,800 -2,700 Descending Atlanta Center
Wed 10:33:45 AM 33.3003 -87.4511 53° Northeast 408 470 13,400 -2,727 Descending Atlanta Center
Wed 10:34:02 AM 33.3158 -87.4144 63° Northeast 372 428 12,300 -2,700 Descending Atlanta Center
Wed 10:34:45 AM 33.3431 -87.3436 65° Northeast 376 433 10,700 -1,791 Descending Atlanta Center
Wed 10:35:09 AM 33.3567 -87.3017 69° East 330 380 10,300 -1,000 Descending Atlanta Center
Wed 10:35:45 AM 33.3747 -87.2478 68° East 340 391 9,700 -1,672 Descending Atlanta Center
Wed 10:36:10 AM 33.3883 -87.2083 68° East 274 315 8,600 -2,000 Descending Atlanta Center
Wed 10:36:45 AM 33.4042 -87.1617 68° East 303 349 7,700 -2,222 Descending Atlanta Center
Wed 10:37:04 AM 33.4153 -87.1297 67° East 272 313 6,600 -2,200 Descending Atlanta Center
Wed 10:37:45 AM 33.4333 -87.0781 67° East 277 319 5,500 -1,701 Descending Atlanta Center
Wed 10:38:11 AM 33.4467 -87.0364 69° East 271 312 4,700 -1,300 Descending Atlanta Center
Wed 10:38:45 AM 33.4625 -86.9969 64° Northeast 264 304 4,200 -982 Descending Atlanta Center
Wed 10:39:06 AM 33.4736 -86.9675 66° East 255 293 3,800 -900 Descending Atlanta Center
Wed 10:39:45 AM 33.4892 -86.9206 68° East 259 298 3,300 -800 Descending Atlanta Center
Wed 10:40:06 AM 33.4983 -86.8911 70° East 241 277 3,000 -700 Descending Atlanta Center
Wed 10:40:45 AM 33.5117 -86.8517 68° East 240 276 2,600 -896 Descending Atlanta Center
Wed 10:41:13 AM 33.5228 -86.8272 61° Northeast 167 192 2,000 -1,286 Descending Atlanta Center

Login

Don't have an account? Register now (free) for customized features, flight alerts, and more!